createdAt,value
2017-01-18T00:03:11.609Z,93.313
2017-01-18T00:11:50.617Z,92.794
2017-01-18T00:14:45.669Z,93.079
2017-01-18T00:17:35.943Z,93.133
2017-01-18T00:20:30.585Z,92.991
2017-01-18T00:23:23.864Z,93.520
2017-01-18T00:26:15.594Z,92.906
2017-01-18T00:29:07.900Z,93.225
2017-01-18T00:32:02.128Z,93.463
2017-01-18T00:34:54.908Z,93.236
2017-01-18T00:37:47.971Z,92.509
2017-01-18T00:40:40.888Z,93.313
2017-01-18T00:46:25.446Z,94.091
2017-01-18T00:49:18.286Z,93.454
2017-01-18T00:52:13.603Z,93.479
2017-01-18T00:55:06.490Z,93.473
2017-01-18T00:57:58.313Z,92.620
2017-01-18T01:00:50.679Z,92.815
2017-01-18T01:03:42.654Z,92.842
2017-01-18T01:09:28.872Z,91.698
2017-01-18T01:12:21.033Z,93.109
2017-01-18T01:15:13.892Z,93.253
2017-01-18T01:18:08.491Z,91.607
2017-01-18T01:21:01.395Z,91.881
2017-01-18T01:23:53.949Z,94.510
2017-01-18T01:29:39.634Z,94.436
2017-01-18T01:32:30.835Z,94.446
2017-01-18T01:38:18.088Z,94.078
2017-01-18T01:41:09.276Z,94.268
2017-01-18T01:44:02.027Z,94.311
2017-01-18T01:49:47.541Z,93.455
2017-01-18T01:52:40.422Z,93.550
2017-01-18T01:58:26.749Z,93.031
2017-01-18T02:04:12.272Z,93.709
2017-01-18T02:07:06.673Z,93.480
2017-01-18T02:09:59.492Z,93.042
2017-01-18T02:15:46.095Z,92.232
2017-01-18T02:18:36.256Z,92.858
2017-01-18T02:21:29.065Z,92.948
2017-01-18T02:24:23.487Z,93.291
2017-01-18T02:27:16.274Z,93.581
2017-01-18T02:30:08.392Z,94.108
2017-01-18T02:33:02.392Z,94.571
2017-01-18T02:35:56.203Z,94.338
2017-01-18T02:38:47.313Z,92.954
2017-01-18T02:41:40.003Z,94.326
2017-01-18T02:47:24.963Z,94.009
2017-01-18T02:50:19.472Z,93.490
2017-01-18T02:53:10.536Z,93.025
2017-01-18T02:56:03.926Z,94.160
2017-01-18T02:58:57.912Z,94.716
2017-01-18T03:01:50.644Z,94.662
2017-01-18T03:04:42.760Z,95.145
2017-01-18T03:10:27.763Z,94.405
2017-01-18T03:16:13.619Z,93.948
2017-01-18T03:21:59.799Z,93.782
2017-01-18T03:24:53.469Z,94.284
2017-01-18T03:27:44.222Z,94.269
2017-01-18T03:30:36.262Z,94.521
2017-01-18T03:39:14.433Z,94.075
2017-01-18T03:42:07.088Z,93.817
2017-01-18T03:44:59.711Z,94.468
2017-01-18T03:47:52.909Z,94.448
2017-01-18T03:50:45.068Z,94.756
2017-01-18T03:53:37.858Z,95.516
2017-01-18T03:56:32.129Z,94.920
2017-01-18T03:59:23.246Z,94.185
2017-01-18T04:02:15.819Z,93.741
2017-01-18T04:05:08.554Z,94.811
2017-01-18T04:08:02.966Z,94.729
2017-01-18T04:10:55.611Z,95.479
2017-01-18T04:13:48.188Z,95.616
2017-01-18T04:16:40.835Z,95.683
2017-01-18T04:19:33.425Z,95.638
2017-01-18T04:22:26.068Z,96.103
2017-01-18T04:25:16.865Z,96.817
2017-01-18T04:28:11.069Z,96.563
2017-01-18T04:31:04.100Z,96.488
2017-01-18T04:33:56.750Z,96.261
2017-01-18T04:36:47.844Z,96.580
2017-01-18T04:39:40.465Z,96.916
2017-01-18T04:42:33.096Z,96.583
2017-01-18T04:45:27.582Z,96.671
2017-01-18T04:48:20.239Z,96.441
2017-01-18T04:51:13.027Z,95.986
2017-01-18T04:54:05.724Z,96.225
2017-01-18T04:56:56.645Z,96.601
2017-01-18T05:05:37.243Z,94.818
2017-01-18T05:08:27.263Z,95.472
2017-01-18T05:14:14.345Z,95.125
2017-01-18T05:17:07.071Z,95.637
2017-01-18T05:20:00.736Z,95.350
2017-01-18T05:22:50.599Z,95.564
2017-01-18T05:25:45.016Z,96.787
2017-01-18T05:28:37.959Z,96.724
2017-01-18T05:31:30.388Z,97.067
2017-01-18T05:34:21.392Z,97.049
2017-01-18T05:37:15.643Z,96.950
2017-01-18T05:40:08.054Z,96.998
2017-01-18T05:42:59.044Z,96.699
2017-01-18T05:45:51.728Z,96.384
2017-01-18T05:48:44.308Z,96.462
2017-01-18T05:51:38.081Z,96.358
2017-01-18T05:54:31.645Z,96.659
2017-01-18T05:57:23.245Z,96.436
2017-01-18T06:00:15.171Z,96.391
2017-01-18T06:03:10.557Z,96.676
2017-01-18T06:06:02.143Z,96.757
2017-01-18T06:08:54.740Z,95.318
2017-01-18T06:11:45.775Z,96.630
2017-01-18T06:17:30.949Z,96.745
2017-01-18T06:20:25.375Z,95.114
2017-01-18T06:23:18.215Z,96.226
2017-01-18T06:26:08.984Z,96.191
2017-01-18T06:29:02.408Z,96.464
2017-01-18T06:34:48.978Z,96.034
2017-01-18T06:37:39.975Z,96.604
2017-01-18T06:43:26.766Z,96.295
2017-01-18T06:46:20.439Z,95.395
2017-01-18T06:49:11.835Z,96.781
2017-01-18T06:52:02.896Z,97.056
2017-01-18T06:57:48.121Z,96.808
2017-01-18T07:00:42.287Z,96.829
2017-01-18T07:03:35.043Z,95.779
2017-01-18T07:06:25.662Z,97.808
2017-01-18T07:12:11.954Z,98.400
2017-01-18T07:15:03.960Z,98.033
2017-01-18T07:17:56.634Z,96.843
2017-01-18T07:20:48.757Z,97.029
2017-01-18T07:23:44.114Z,97.307
2017-01-18T07:26:35.803Z,96.956
2017-01-18T07:29:28.520Z,96.729
2017-01-18T07:32:20.013Z,97.622
2017-01-18T07:40:57.476Z,97.771
2017-01-18T07:43:50.923Z,98.475
2017-01-18T07:46:44.354Z,97.980
2017-01-18T07:49:37.561Z,97.717
2017-01-18T07:55:22.256Z,97.389
2017-01-18T08:01:07.509Z,97.261
2017-01-18T08:04:01.278Z,97.507
2017-01-18T08:06:54.136Z,97.640
2017-01-18T08:09:45.124Z,97.345
2017-01-18T08:12:39.538Z,97.195
2017-01-18T08:15:32.248Z,97.236
2017-01-18T08:24:11.106Z,96.634
2017-01-18T08:27:02.721Z,96.214
2017-01-18T08:29:55.387Z,95.917
2017-01-18T08:32:48.151Z,96.136
2017-01-18T08:35:41.577Z,95.895
2017-01-18T08:38:35.313Z,95.666
2017-01-18T08:41:28.245Z,96.136
2017-01-18T08:44:20.016Z,95.700
2017-01-18T08:47:12.230Z,95.465
2017-01-18T08:50:04.920Z,94.629
2017-01-18T08:53:00.400Z,94.414
2017-01-18T08:55:50.602Z,95.016
2017-01-18T08:58:43.376Z,95.078
2017-01-18T09:01:36.268Z,95.067
2017-01-18T09:04:28.728Z,95.394
2017-01-18T09:07:21.403Z,95.440
2017-01-18T09:10:14.738Z,94.581
2017-01-18T09:13:09.243Z,94.792
2017-01-18T09:16:00.445Z,95.213
2017-01-18T09:18:54.906Z,94.866
2017-01-18T09:24:38.719Z,94.911
2017-01-18T09:27:33.381Z,93.952
2017-01-18T09:30:25.870Z,94.002
2017-01-18T09:33:17.746Z,94.097
2017-01-18T09:36:11.592Z,93.999
2017-01-18T09:39:04.068Z,93.953
2017-01-18T09:41:58.200Z,93.984
2017-01-18T09:44:50.819Z,93.027
2017-01-18T09:47:41.889Z,93.385
2017-01-18T09:50:36.200Z,93.067
2017-01-18T09:53:27.643Z,93.144
2017-01-18T09:56:21.839Z,92.886
2017-01-18T10:02:06.032Z,93.183
2017-01-18T10:04:59.384Z,92.501
2017-01-18T10:07:51.507Z,92.925
2017-01-18T10:10:44.561Z,92.731
2017-01-18T10:13:40.153Z,92.836
2017-01-18T10:16:31.872Z,93.025
2017-01-18T10:19:24.703Z,93.270
2017-01-18T10:22:17.123Z,92.009
2017-01-18T10:25:10.391Z,92.439
2017-01-18T10:28:01.728Z,92.282
2017-01-18T10:30:54.540Z,91.999
2017-01-18T10:33:47.539Z,92.248
2017-01-18T10:36:40.236Z,92.296
2017-01-18T10:42:27.700Z,91.904
2017-01-18T10:45:19.386Z,91.891
2017-01-18T10:48:11.508Z,92.258
2017-01-18T10:51:06.066Z,92.149
2017-01-18T10:53:57.224Z,91.666
2017-01-18T10:56:49.977Z,91.729
2017-01-18T10:59:44.490Z,91.568
2017-01-18T11:02:37.310Z,91.749
2017-01-18T11:05:28.628Z,91.407
2017-01-18T11:08:21.596Z,91.383
2017-01-18T11:11:14.727Z,91.629
2017-01-18T11:14:07.687Z,91.025
2017-01-18T11:19:53.523Z,90.652
2017-01-18T11:22:46.523Z,90.750
2017-01-18T11:25:39.160Z,91.257
2017-01-18T11:28:32.305Z,91.762
2017-01-18T11:31:25.137Z,91.749
2017-01-18T11:34:18.855Z,91.698
2017-01-18T11:37:10.837Z,91.564
2017-01-18T11:40:03.889Z,91.302
2017-01-18T11:42:56.791Z,91.420
2017-01-18T11:45:51.561Z,91.454
2017-01-18T11:48:42.695Z,91.513
2017-01-18T11:51:35.560Z,91.551
2017-01-18T11:54:30.117Z,91.375
2017-01-18T11:57:23.086Z,91.084
2017-01-18T12:00:14.487Z,91.405
2017-01-18T12:03:10.059Z,91.921
2017-01-18T12:06:00.042Z,91.314
2017-01-18T12:11:45.859Z,91.512
2017-01-18T12:14:40.615Z,91.234
2017-01-18T12:17:31.765Z,91.574
2017-01-18T12:20:24.526Z,91.549
2017-01-18T12:23:19.375Z,91.533
2017-01-18T12:26:10.248Z,91.723
2017-01-18T12:29:03.335Z,91.149
2017-01-18T12:31:56.132Z,90.545
2017-01-18T12:34:49.301Z,90.607
2017-01-18T12:37:42.437Z,90.790
2017-01-18T12:40:34.996Z,90.902
2017-01-18T12:43:29.590Z,91.129
2017-01-18T12:46:20.940Z,91.870
2017-01-18T12:52:07.070Z,91.514
2017-01-18T12:55:01.571Z,91.687
2017-01-18T12:57:52.896Z,91.572
2017-01-18T13:00:47.302Z,91.659
2017-01-18T13:03:40.232Z,92.095
2017-01-18T13:06:31.516Z,92.160
2017-01-18T13:09:26.180Z,91.860
2017-01-18T13:12:17.518Z,91.912
2017-01-18T13:15:12.025Z,91.237
2017-01-18T13:18:04.888Z,92.386
2017-01-18T13:20:56.106Z,92.885
2017-01-18T13:23:51.781Z,92.461
2017-01-18T13:26:42.888Z,91.514
2017-01-18T13:29:37.482Z,91.458
2017-01-18T13:32:29.415Z,92.047
2017-01-18T13:35:20.558Z,92.343
2017-01-18T13:38:13.425Z,91.643
2017-01-18T13:43:59.093Z,92.247
2017-01-18T13:46:53.689Z,92.798
2017-01-18T13:49:44.881Z,92.159
2017-01-18T13:52:37.731Z,93.070
2017-01-18T13:55:32.129Z,92.737
2017-01-18T13:58:24.990Z,92.958
2017-01-18T14:01:16.181Z,93.067
2017-01-18T14:04:10.793Z,92.937
2017-01-18T14:07:01.880Z,92.937
2017-01-18T14:09:56.503Z,92.932
2017-01-18T14:12:48.648Z,92.772
2017-01-18T14:15:40.536Z,92.791
2017-01-18T14:18:36.259Z,93.147
2017-01-18T14:21:27.258Z,93.161
2017-01-18T14:24:19.225Z,92.937
2017-01-18T14:27:12.021Z,92.434
2017-01-18T14:32:57.543Z,92.935
2017-01-18T14:38:44.896Z,92.945
2017-01-18T14:41:37.623Z,93.027
2017-01-18T14:44:28.942Z,92.757
2017-01-18T14:47:23.787Z,93.191
2017-01-18T14:50:14.827Z,92.960
2017-01-18T14:53:07.566Z,93.038
2017-01-18T14:56:00.969Z,92.573
2017-01-18T14:58:54.891Z,92.478
2017-01-18T15:01:47.874Z,92.748
2017-01-18T15:04:38.864Z,92.691
2017-01-18T15:07:33.399Z,92.995
2017-01-18T15:10:24.454Z,93.291
2017-01-18T15:13:18.295Z,93.861
2017-01-18T15:16:12.639Z,94.077
2017-01-18T15:19:02.797Z,93.793
2017-01-18T15:21:55.992Z,94.661
2017-01-18T15:24:48.867Z,94.127
2017-01-18T15:27:44.455Z,94.631
2017-01-18T15:30:34.696Z,95.195
2017-01-18T15:33:28.008Z,94.049
2017-01-18T15:36:21.671Z,94.651
2017-01-18T15:39:12.742Z,94.688
2017-01-18T15:42:05.495Z,94.860
2017-01-18T15:45:01.037Z,94.515
2017-01-18T15:47:51.343Z,95.063
2017-01-18T15:50:43.973Z,94.580
2017-01-18T15:53:37.020Z,94.499
2017-01-18T15:56:31.015Z,94.525
2017-01-18T15:59:23.144Z,95.122
2017-01-18T16:02:18.008Z,94.917
2017-01-18T16:05:08.765Z,95.291
2017-01-18T16:08:01.433Z,95.104
2017-01-18T16:13:47.070Z,94.649
2017-01-18T16:16:39.759Z,94.523
2017-01-18T16:19:34.318Z,94.729
2017-01-18T16:22:25.427Z,95.142
2017-01-18T16:25:19.861Z,94.879
2017-01-18T16:28:11.185Z,95.136
2017-01-18T16:31:05.792Z,94.864
2017-01-18T16:33:57.270Z,94.752
2017-01-18T16:36:51.159Z,94.828
2017-01-18T16:39:42.890Z,94.214
2017-01-18T16:42:35.842Z,94.863
2017-01-18T16:45:29.542Z,94.991
2017-01-18T16:48:23.054Z,94.598
2017-01-18T16:51:16.014Z,95.132
2017-01-18T16:54:08.069Z,95.021
2017-01-18T16:57:01.543Z,95.196
2017-01-18T16:59:52.745Z,95.098
2017-01-18T17:02:47.117Z,94.812
2017-01-18T17:05:38.137Z,95.016
2017-01-18T17:08:32.545Z,94.800
2017-01-18T17:11:23.858Z,94.847
2017-01-18T17:14:17.677Z,94.937
2017-01-18T17:17:09.311Z,95.020
2017-01-18T17:20:03.373Z,95.206
2017-01-18T17:22:56.706Z,95.137
2017-01-18T17:25:47.832Z,95.223
2017-01-18T17:28:42.202Z,94.998
2017-01-18T17:31:33.979Z,94.775
2017-01-18T17:34:26.835Z,94.997
2017-01-18T17:37:19.107Z,95.250
2017-01-18T17:40:13.512Z,94.641
2017-01-18T17:43:04.739Z,95.030
2017-01-18T17:45:57.518Z,94.887
2017-01-18T17:48:50.217Z,94.642
2017-01-18T17:51:44.938Z,94.680
2017-01-18T17:54:38.663Z,95.252
2017-01-18T17:57:29.249Z,95.092
2017-01-18T18:03:15.098Z,94.906
2017-01-18T18:06:07.937Z,94.377
2017-01-18T18:09:00.952Z,93.991
2017-01-18T18:11:54.639Z,94.086
2017-01-18T18:14:46.755Z,94.432
2017-01-18T18:17:41.032Z,94.671
2017-01-18T18:23:26.805Z,94.548
2017-01-18T18:26:19.786Z,95.062
2017-01-18T18:29:10.911Z,95.042
2017-01-18T18:32:06.272Z,94.949
2017-01-18T18:34:56.287Z,95.340
2017-01-18T18:37:49.454Z,94.773
2017-01-18T18:40:41.906Z,94.947
2017-01-18T18:43:34.886Z,94.997
2017-01-18T18:46:29.709Z,94.705
2017-01-18T18:49:21.034Z,94.263
2017-01-18T18:52:15.601Z,94.595
2017-01-18T18:55:08.339Z,94.703
2017-01-18T19:00:52.181Z,94.800
2017-01-18T19:03:45.602Z,94.884
2017-01-18T19:06:38.271Z,94.759
2017-01-18T19:09:31.469Z,94.978
2017-01-18T19:12:23.884Z,94.879
2017-01-18T19:15:16.697Z,94.248
2017-01-18T19:18:09.722Z,94.542
2017-01-18T19:23:56.227Z,94.744
2017-01-18T19:26:48.804Z,94.345
2017-01-18T19:29:42.116Z,94.632
2017-01-18T19:32:35.827Z,94.354
2017-01-18T19:35:27.448Z,94.883
2017-01-18T19:38:19.526Z,95.332
2017-01-18T19:41:12.829Z,94.118
2017-01-18T19:44:05.322Z,94.498
2017-01-18T19:46:58.124Z,94.272
2017-01-18T19:49:52.548Z,95.415
2017-01-18T19:52:43.537Z,95.328
2017-01-18T19:55:36.497Z,95.172
2017-01-18T19:58:30.693Z,95.319
2017-01-18T20:01:21.948Z,95.252
2017-01-18T20:04:15.127Z,94.932
2017-01-18T20:07:07.267Z,95.053
2017-01-18T20:10:00.019Z,94.593
2017-01-18T20:12:54.527Z,95.106
2017-01-18T20:15:48.325Z,94.506
2017-01-18T20:18:38.331Z,94.847
2017-01-18T20:21:31.252Z,94.649
2017-01-18T20:24:25.600Z,95.199
2017-01-18T20:27:16.837Z,95.295
2017-01-18T20:30:09.651Z,94.810
2017-01-18T20:33:02.226Z,94.712
2017-01-18T20:35:56.573Z,94.892
2017-01-18T20:38:49.265Z,94.627
2017-01-18T20:41:42.082Z,95.042
2017-01-18T20:44:36.132Z,94.916
2017-01-18T20:47:26.006Z,94.694
2017-01-18T20:50:18.836Z,94.406
2017-01-18T20:53:13.793Z,94.540
2017-01-18T20:56:06.541Z,94.312
2017-01-18T20:58:59.323Z,94.651
2017-01-18T21:01:50.498Z,94.269
2017-01-18T21:04:43.206Z,94.768
2017-01-18T21:07:35.967Z,94.759
2017-01-18T21:10:31.609Z,94.642
2017-01-18T21:13:23.160Z,94.366
2017-01-18T21:16:14.021Z,94.022
2017-01-18T21:19:06.935Z,94.112
2017-01-18T21:21:59.735Z,93.907
2017-01-18T21:24:54.140Z,93.320
2017-01-18T21:27:47.222Z,93.245
2017-01-18T21:30:38.229Z,93.642
2017-01-18T21:33:32.863Z,94.009
2017-01-18T21:36:25.476Z,94.179
2017-01-18T21:39:18.312Z,94.509
2017-01-18T21:42:11.166Z,94.578
2017-01-18T21:45:03.880Z,94.267
2017-01-18T21:47:56.081Z,93.885
2017-01-18T21:50:47.800Z,93.492
2017-01-18T21:53:40.626Z,93.264
2017-01-18T21:56:35.080Z,93.641
2017-01-18T21:59:26.508Z,93.927
2017-01-18T22:02:21.089Z,93.953
2017-01-18T22:05:13.181Z,94.252
2017-01-18T22:08:06.146Z,93.459
2017-01-18T22:10:58.974Z,93.573
2017-01-18T22:13:52.559Z,93.320
2017-01-18T22:16:43.510Z,94.025
2017-01-18T22:22:28.209Z,94.503
2017-01-18T22:25:21.856Z,94.154
2017-01-18T22:28:14.520Z,94.426
2017-01-18T22:31:07.448Z,94.234
2017-01-18T22:33:59.222Z,94.114
2017-01-18T22:36:52.869Z,94.229
2017-01-18T22:39:46.473Z,93.889
2017-01-18T22:42:37.602Z,94.000
2017-01-18T22:45:32.123Z,93.982
2017-01-18T22:48:24.889Z,94.159
2017-01-18T22:51:15.996Z,93.709
2017-01-18T22:57:03.265Z,93.681
2017-01-18T22:59:54.192Z,93.795
2017-01-18T23:02:47.638Z,93.743
2017-01-18T23:05:40.429Z,93.675
2017-01-18T23:08:33.402Z,93.697
2017-01-18T23:11:27.057Z,93.642
2017-01-18T23:14:19.938Z,93.574
2017-01-18T23:17:11.677Z,93.709
2017-01-18T23:20:03.797Z,93.719
2017-01-18T23:22:59.407Z,93.528
2017-01-18T23:25:49.406Z,93.497
2017-01-18T23:28:42.263Z,93.702
2017-01-18T23:31:35.122Z,92.965
2017-01-18T23:34:27.804Z,92.786
2017-01-18T23:37:20.594Z,92.607
2017-01-18T23:40:15.067Z,93.684
2017-01-18T23:43:07.748Z,93.583
2017-01-18T23:45:59.162Z,93.675
2017-01-18T23:48:52.023Z,93.651
2017-01-18T23:51:44.864Z,93.415
2017-01-18T23:54:38.440Z,94.086
2017-01-18T23:57:30.188Z,93.643
